Time;durP1;ratioP1;P1;durP2;ratioP2;P2;SDS_P1;SDS_P2;PMS_P1;PMS_P2;Temp;Humidity;BMP_temperature;BMP_pressure;BME280_temperature;BME280_humidity;BME280_pressure;Samples;Min_cycle;Max_cycle;Signal;HPM_P1;HPM_P2
2024/01/31 00:01:38;;;;;;;0.10;0.10;;;;;;;;;;5049808;28;20025;-72
2024/01/31 00:04:06;;;;;;;1.65;1.55;;;;;;;;;;5050945;28;20032;-71
2024/01/31 00:06:32;;;;;;;0.40;0.40;;;;;;;;;;5059932;28;20029;-72
2024/01/31 00:08:57;;;;;;;0.10;0.10;;;;;;;;;;5050672;28;20044;-72
2024/01/31 00:11:28;;;;;;;0.10;0.10;;;;;;;;;;5058209;28;20035;-74
2024/01/31 00:13:54;;;;;;;0.10;0.10;;;;;;;;;;5069020;28;20028;-74
2024/01/31 00:16:20;;;;;;;0.10;0.10;;;;;;;;;;5071772;28;20011;-74
2024/01/31 00:18:46;;;;;;;0.10;0.10;;;;;;;;;;5074199;28;20075;-74
2024/01/31 00:21:11;;;;;;;1.75;0.82;;;;;;;;;;5073854;28;20020;-73
2024/01/31 00:23:37;;;;;;;0.10;0.10;;;;;;;;;;5073919;28;20090;-75
2024/01/31 00:26:02;;;;;;;0.10;0.10;;;;;;;;;;5074003;28;20031;-74
2024/01/31 00:28:28;;;;;;;0.10;0.10;;;;;;;;;;5074086;28;20406;-74
2024/01/31 00:30:53;;;;;;;0.10;0.10;;;;;;;;;;5073738;28;20086;-74
2024/01/31 00:33:19;;;;;;;0.15;0.15;;;;;;;;;;5072522;28;20031;-74
2024/01/31 00:35:45;;;;;;;0.38;0.38;;;;;;;;;;5073661;28;20025;-74
2024/01/31 00:38:10;;;;;;;0.10;0.10;;;;;;;;;;5073471;28;20499;-74
2024/01/31 00:40:36;;;;;;;0.10;0.10;;;;;;;;;;5073694;28;20094;-75
2024/01/31 00:43:01;;;;;;;0.10;0.10;;;;;;;;;;5073714;28;20356;-74
2024/01/31 00:45:30;;;;;;;1.55;1.45;;;;;;;;;;5073994;28;20477;-74
2024/01/31 00:47:55;;;;;;;0.10;0.10;;;;;;;;;;5073558;28;20464;-74
2024/01/31 00:50:21;;;;;;;0.10;0.10;;;;;;;;;;5073542;28;20081;-74
2024/01/31 00:52:47;;;;;;;0.10;0.10;;;;;;;;;;5073857;28;20115;-73
2024/01/31 00:55:12;;;;;;;0.47;0.47;;;;;;;;;;5073783;28;20498;-74
2024/01/31 00:57:38;;;;;;;0.20;0.20;;;;;;;;;;5073616;28;20032;-74
2024/01/31 01:00:08;;;;;;;0.10;0.10;;;;;;;;;;5073462;28;20386;-74
2024/01/31 01:02:36;;;;;;;1.27;1.27;;;;;;;;;;5073038;28;20024;-75
2024/01/31 01:05:02;;;;;;;0.10;0.10;;;;;;;;;;5073377;28;20371;-75
2024/01/31 01:07:27;;;;;;;0.10;0.10;;;;;;;;;;5073562;28;20009;-75
2024/01/31 01:09:53;;;;;;;0.10;0.10;;;;;;;;;;5073544;28;20086;-74
2024/01/31 01:12:18;;;;;;;0.10;0.10;;;;;;;;;;5073316;28;20051;-74
2024/01/31 01:14:44;;;;;;;0.10;0.10;;;;;;;;;;5071542;28;20025;-74
2024/01/31 01:17:10;;;;;;;0.10;0.10;;;;;;;;;;5054097;28;20074;-74
2024/01/31 01:19:35;;;;;;;0.10;0.10;;;;;;;;;;5053084;28;20029;-74
2024/01/31 01:22:01;;;;;;;0.10;0.10;;;;;;;;;;5051882;28;20021;-72
2024/01/31 01:24:27;;;;;;;0.10;0.10;;;;;;;;;;5053531;28;20040;-72
2024/01/31 01:26:52;;;;;;;0.10;0.10;;;;;;;;;;5053183;28;20393;-73
2024/01/31 01:29:18;;;;;;;0.10;0.10;;;;;;;;;;5053113;28;20025;-74
2024/01/31 01:31:43;;;;;;;0.10;0.10;;;;;;;;;;5053054;28;20073;-74
2024/01/31 01:34:10;;;;;;;0.10;0.10;;;;;;;;;;5052944;28;20059;-74
2024/01/31 01:36:36;;;;;;;0.10;0.10;;;;;;;;;;5052855;28;20477;-72
2024/01/31 01:39:03;;;;;;;0.10;0.10;;;;;;;;;;5053024;28;20078;-73
2024/01/31 01:41:28;;;;;;;0.10;0.10;;;;;;;;;;5053217;28;20464;-72
2024/01/31 01:43:54;;;;;;;0.10;0.10;;;;;;;;;;5053103;28;20021;-73
2024/01/31 01:46:23;;;;;;;0.10;0.10;;;;;;;;;;5053045;28;20056;-74
2024/01/31 01:48:49;;;;;;;0.10;0.10;;;;;;;;;;5052858;28;20036;-72
2024/01/31 01:51:15;;;;;;;0.50;0.50;;;;;;;;;;5053514;28;20400;-73
2024/01/31 01:53:42;;;;;;;0.30;0.30;;;;;;;;;;5053216;28;20052;-74
2024/01/31 01:56:08;;;;;;;0.10;0.10;;;;;;;;;;5051793;28;20107;-73
2024/01/31 01:58:35;;;;;;;0.10;0.10;;;;;;;;;;5052766;28;20029;-74
2024/01/31 02:01:00;;;;;;;0.20;0.20;;;;;;;;;;5052906;28;20017;-74
2024/01/31 02:03:28;;;;;;;0.10;0.10;;;;;;;;;;5051568;28;20414;-73
2024/01/31 02:05:54;;;;;;;0.10;0.10;;;;;;;;;;5053311;28;20075;-73
2024/01/31 02:08:19;;;;;;;0.10;0.10;;;;;;;;;;5052816;28;20025;-73
2024/01/31 02:10:45;;;;;;;0.10;0.10;;;;;;;;;;5052775;28;20480;-74
2024/01/31 02:13:10;;;;;;;0.10;0.10;;;;;;;;;;5052810;28;20025;-74
2024/01/31 02:15:36;;;;;;;0.10;0.10;;;;;;;;;;5055938;28;20028;-73
2024/01/31 02:18:02;;;;;;;0.10;0.10;;;;;;;;;;5056248;28;20009;-73
2024/01/31 02:20:28;;;;;;;0.10;0.10;;;;;;;;;;5055145;28;20044;-73
2024/01/31 02:22:55;;;;;;;0.10;0.10;;;;;;;;;;5056214;28;20108;-72
2024/01/31 02:25:21;;;;;;;0.10;0.10;;;;;;;;;;5056259;28;20522;-73
2024/01/31 02:27:46;;;;;;;0.05;0.05;;;;;;;;;;5056180;28;20048;-73
2024/01/31 02:30:12;;;;;;;0.10;0.10;;;;;;;;;;5056195;28;20060;-72
2024/01/31 02:32:37;;;;;;;0.10;0.10;;;;;;;;;;5056726;28;20029;-74
2024/01/31 02:35:04;;;;;;;0.10;0.10;;;;;;;;;;5054752;28;20533;-73
2024/01/31 02:37:29;;;;;;;0.20;0.20;;;;;;;;;;5056029;28;20067;-74
2024/01/31 02:39:55;;;;;;;0.10;0.10;;;;;;;;;;5055816;28;20460;-74
2024/01/31 02:42:20;;;;;;;0.32;0.32;;;;;;;;;;5055940;28;20108;-75
2024/01/31 02:44:46;;;;;;;0.10;0.10;;;;;;;;;;5055668;28;20036;-73
2024/01/31 02:47:11;;;;;;;0.10;0.10;;;;;;;;;;5055670;28;20032;-74
2024/01/31 02:49:37;;;;;;;0.10;0.10;;;;;;;;;;5055722;28;20031;-73
2024/01/31 02:52:03;;;;;;;0.10;0.10;;;;;;;;;;5055833;28;20029;-73
2024/01/31 02:54:28;;;;;;;0.10;0.10;;;;;;;;;;5055559;28;20071;-74
2024/01/31 02:56:54;;;;;;;0.10;0.10;;;;;;;;;;5055545;28;20438;-74
2024/01/31 02:59:22;;;;;;;0.00;0.00;;;;;;;;;;5054275;28;20055;-73
2024/01/31 03:01:49;;;;;;;0.10;0.10;;;;;;;;;;5055460;28;20464;-73
2024/01/31 03:04:15;;;;;;;0.10;0.10;;;;;;;;;;5055519;28;20036;-74
2024/01/31 03:06:40;;;;;;;0.10;0.10;;;;;;;;;;5055409;28;20033;-74
2024/01/31 03:09:06;;;;;;;0.10;0.10;;;;;;;;;;5054260;28;20036;-73
2024/01/31 03:11:31;;;;;;;0.10;0.10;;;;;;;;;;5055382;28;20039;-72
2024/01/31 03:13:57;;;;;;;0.10;0.10;;;;;;;;;;5055217;28;20036;-72
2024/01/31 03:16:23;;;;;;;0.10;0.10;;;;;;;;;;5055893;28;20236;-72
2024/01/31 03:18:48;;;;;;;0.10;0.10;;;;;;;;;;5055309;28;20024;-72
2024/01/31 03:21:14;;;;;;;0.10;0.10;;;;;;;;;;5055085;28;20405;-73
2024/01/31 03:23:39;;;;;;;0.10;0.10;;;;;;;;;;5055203;28;20076;-72
2024/01/31 03:26:05;;;;;;;0.10;0.10;;;;;;;;;;5054555;28;20028;-72
2024/01/31 03:28:31;;;;;;;0.10;0.10;;;;;;;;;;5055016;28;20383;-72
2024/01/31 03:30:57;;;;;;;0.40;0.40;;;;;;;;;;5054786;28;20439;-72
2024/01/31 03:33:22;;;;;;;0.10;0.10;;;;;;;;;;5055044;28;20101;-73
2024/01/31 03:35:48;;;;;;;0.00;0.00;;;;;;;;;;5054808;28;20052;-74
2024/01/31 03:38:14;;;;;;;0.10;0.10;;;;;;;;;;5054881;28;20037;-73
2024/01/31 03:40:40;;;;;;;0.10;0.10;;;;;;;;;;5054809;28;20113;-74
2024/01/31 03:43:05;;;;;;;0.03;0.03;;;;;;;;;;5054690;28;20025;-74
2024/01/31 03:45:31;;;;;;;0.00;0.00;;;;;;;;;;5054645;28;20048;-74
2024/01/31 03:47:57;;;;;;;0.00;0.00;;;;;;;;;;5054626;28;20461;-74
2024/01/31 03:50:22;;;;;;;0.10;0.10;;;;;;;;;;5054768;28;20025;-74
2024/01/31 03:52:48;;;;;;;0.10;0.10;;;;;;;;;;5054610;28;20075;-73
2024/01/31 03:55:14;;;;;;;0.10;0.10;;;;;;;;;;5067557;28;20029;-75
2024/01/31 03:57:41;;;;;;;0.00;0.00;;;;;;;;;;5072479;28;20099;-73
2024/01/31 04:00:09;;;;;;;0.10;0.10;;;;;;;;;;5050061;28;20108;-74
2024/01/31 04:02:35;;;;;;;0.10;0.10;;;;;;;;;;5050068;28;20052;-72
2024/01/31 04:05:01;;;;;;;0.10;0.10;;;;;;;;;;5050211;28;20408;-73
2024/01/31 04:07:28;;;;;;;0.10;0.10;;;;;;;;;;5050768;28;20070;-74
2024/01/31 04:09:53;;;;;;;0.10;0.10;;;;;;;;;;5049158;28;20484;-73
2024/01/31 04:12:19;;;;;;;0.10;0.10;;;;;;;;;;5050243;28;20024;-73
2024/01/31 04:14:45;;;;;;;0.05;0.05;;;;;;;;;;5049164;28;20029;-74
2024/01/31 04:17:10;;;;;;;0.10;0.10;;;;;;;;;;5050266;28;20013;-74
2024/01/31 04:19:36;;;;;;;0.10;0.10;;;;;;;;;;5050108;28;20370;-72
2024/01/31 04:22:02;;;;;;;0.00;0.00;;;;;;;;;;5050037;28;20044;-73
2024/01/31 04:24:28;;;;;;;0.10;0.10;;;;;;;;;;5049867;28;20438;-73
2024/01/31 04:26:53;;;;;;;0.10;0.10;;;;;;;;;;5049141;28;20039;-73
2024/01/31 04:29:19;;;;;;;0.10;0.10;;;;;;;;;;5050220;28;20044;-72
2024/01/31 04:31:44;;;;;;;0.05;0.05;;;;;;;;;;5059917;28;20368;-74
2024/01/31 04:34:10;;;;;;;0.10;0.10;;;;;;;;;;5059097;28;20028;-72
2024/01/31 04:36:36;;;;;;;0.10;0.10;;;;;;;;;;5067635;28;20055;-72
2024/01/31 04:39:03;;;;;;;0.10;0.10;;;;;;;;;;5068666;28;20086;-73
2024/01/31 04:41:28;;;;;;;0.00;0.00;;;;;;;;;;5068667;28;20384;-74
2024/01/31 04:43:54;;;;;;;0.10;0.10;;;;;;;;;;5070329;28;20017;-73
2024/01/31 04:46:20;;;;;;;0.10;0.10;;;;;;;;;;5068481;28;20028;-73
2024/01/31 04:48:46;;;;;;;0.10;0.10;;;;;;;;;;5069616;28;20345;-73
2024/01/31 04:51:12;;;;;;;0.00;0.00;;;;;;;;;;5052283;28;20024;-73
2024/01/31 04:53:37;;;;;;;0.10;0.10;;;;;;;;;;5049595;28;20024;-74
2024/01/31 04:56:07;;;;;;;0.10;0.10;;;;;;;;;;5048423;28;20020;-72
2024/01/31 04:58:32;;;;;;;0.10;0.10;;;;;;;;;;5061591;28;20028;-72
2024/01/31 05:00:58;;;;;;;0.10;0.10;;;;;;;;;;5043498;28;20039;-72
2024/01/31 05:03:24;;;;;;;0.08;0.08;;;;;;;;;;5044417;28;20021;-73
2024/01/31 05:05:49;;;;;;;0.10;0.10;;;;;;;;;;5046233;28;20025;-73
2024/01/31 05:08:15;;;;;;;0.10;0.10;;;;;;;;;;5046419;28;20491;-73
2024/01/31 05:10:44;;;;;;;0.10;0.10;;;;;;;;;;5045095;28;20516;-74
2024/01/31 05:13:11;;;;;;;0.10;0.10;;;;;;;;;;5026629;28;20021;-73
2024/01/31 05:15:37;;;;;;;2.33;2.22;;;;;;;;;;5046506;28;20485;-74
2024/01/31 05:18:02;;;;;;;0.22;0.22;;;;;;;;;;5044370;28;20411;-74
2024/01/31 05:20:29;;;;;;;0.10;0.10;;;;;;;;;;5043392;28;20441;-73
2024/01/31 05:22:55;;;;;;;0.10;0.10;;;;;;;;;;5046046;28;20025;-72
2024/01/31 05:25:21;;;;;;;0.10;0.10;;;;;;;;;;5049157;28;20029;-71
2024/01/31 05:27:48;;;;;;;0.10;0.10;;;;;;;;;;5049764;28;20033;-73
2024/01/31 05:30:14;;;;;;;0.10;0.10;;;;;;;;;;5048026;28;20056;-73
2024/01/31 05:32:39;;;;;;;0.08;0.08;;;;;;;;;;5053746;28;20039;-73
2024/01/31 05:35:05;;;;;;;0.10;0.10;;;;;;;;;;5066420;28;20030;-72
2024/01/31 05:37:31;;;;;;;0.10;0.10;;;;;;;;;;5066974;28;20047;-71
2024/01/31 05:39:57;;;;;;;0.10;0.10;;;;;;;;;;5066517;28;20376;-73
2024/01/31 05:42:22;;;;;;;0.10;0.10;;;;;;;;;;5067841;28;20013;-72
2024/01/31 05:44:48;;;;;;;0.10;0.10;;;;;;;;;;5067382;28;20013;-73
2024/01/31 05:47:14;;;;;;;0.10;0.10;;;;;;;;;;5069146;28;20035;-71
2024/01/31 05:49:40;;;;;;;0.10;0.10;;;;;;;;;;5071107;28;20384;-72
2024/01/31 05:52:08;;;;;;;0.10;0.10;;;;;;;;;;5072642;28;20471;-74
2024/01/31 05:54:34;;;;;;;0.10;0.10;;;;;;;;;;5070524;28;20162;-74
2024/01/31 05:56:59;;;;;;;0.10;0.10;;;;;;;;;;5071283;28;20123;-75
2024/01/31 05:59:25;;;;;;;0.10;0.10;;;;;;;;;;5071905;28;20024;-74
2024/01/31 06:01:50;;;;;;;0.10;0.10;;;;;;;;;;5060673;28;20028;-71
2024/01/31 06:04:16;;;;;;;0.10;0.10;;;;;;;;;;5050941;28;20078;-73
2024/01/31 06:06:42;;;;;;;0.10;0.10;;;;;;;;;;5064608;28;20095;-74
2024/01/31 06:09:08;;;;;;;0.00;0.00;;;;;;;;;;5070155;28;20032;-75
2024/01/31 06:11:34;;;;;;;0.00;0.00;;;;;;;;;;5059183;28;20028;-74
2024/01/31 06:13:59;;;;;;;0.00;0.00;;;;;;;;;;5055582;28;20048;-73
2024/01/31 06:16:25;;;;;;;0.00;0.00;;;;;;;;;;5050762;28;20021;-71
2024/01/31 06:18:51;;;;;;;0.10;0.10;;;;;;;;;;5050546;28;20482;-71
2024/01/31 06:21:16;;;;;;;0.63;0.63;;;;;;;;;;5046158;28;20035;-72
2024/01/31 06:23:42;;;;;;;0.10;0.10;;;;;;;;;;5050012;28;20118;-71
2024/01/31 06:26:08;;;;;;;0.00;0.00;;;;;;;;;;5060607;28;20017;-71
2024/01/31 06:28:38;;;;;;;0.10;0.10;;;;;;;;;;5057116;28;20037;-71
2024/01/31 06:31:13;;;;;;;0.00;0.00;;;;;;;;;;5049267;28;20032;-70
2024/01/31 06:33:42;;;;;;;0.10;0.10;;;;;;;;;;5047905;28;20087;-70
2024/01/31 06:36:09;;;;;;;0.10;0.10;;;;;;;;;;5049132;28;20052;-70
2024/01/31 06:38:34;;;;;;;0.10;0.10;;;;;;;;;;5048418;28;20017;-72
2024/01/31 06:41:00;;;;;;;0.10;0.10;;;;;;;;;;5047823;28;20029;-72
2024/01/31 06:43:26;;;;;;;0.10;0.10;;;;;;;;;;5047767;28;20543;-72
2024/01/31 06:45:52;;;;;;;0.00;0.00;;;;;;;;;;5047498;28;20474;-72
2024/01/31 06:48:17;;;;;;;0.10;0.10;;;;;;;;;;5046533;28;20005;-71
2024/01/31 06:50:43;;;;;;;0.10;0.10;;;;;;;;;;5048186;28;20028;-70
2024/01/31 06:53:09;;;;;;;0.10;0.10;;;;;;;;;;5052877;28;20017;-72
2024/01/31 06:55:34;;;;;;;0.00;0.00;;;;;;;;;;5068419;28;20043;-69
2024/01/31 06:58:00;;;;;;;0.30;0.30;;;;;;;;;;5067401;28;20044;-73
2024/01/31 07:00:25;;;;;;;0.00;0.00;;;;;;;;;;5066839;28;20031;-74
2024/01/31 07:02:52;;;;;;;0.10;0.10;;;;;;;;;;5068780;28;20090;-74
2024/01/31 07:05:21;;;;;;;0.10;0.10;;;;;;;;;;5068089;28;20055;-76
2024/01/31 07:07:48;;;;;;;0.00;0.00;;;;;;;;;;5067073;28;20048;-75
2024/01/31 07:10:14;;;;;;;0.28;0.28;;;;;;;;;;5064086;28;20021;-73
2024/01/31 07:12:39;;;;;;;0.10;0.10;;;;;;;;;;5065528;28;20028;-75
2024/01/31 07:15:05;;;;;;;0.00;0.00;;;;;;;;;;5069360;28;20092;-74
2024/01/31 07:17:31;;;;;;;0.40;0.40;;;;;;;;;;5069348;28;20352;-74
2024/01/31 07:19:57;;;;;;;0.70;0.50;;;;;;;;;;5065883;28;20036;-75
2024/01/31 07:22:23;;;;;;;0.10;0.10;;;;;;;;;;5051897;28;20025;-73
2024/01/31 07:24:48;;;;;;;0.10;0.10;;;;;;;;;;5060982;28;20020;-75
2024/01/31 07:27:14;;;;;;;0.32;0.32;;;;;;;;;;5051824;28;20032;-76
2024/01/31 07:29:39;;;;;;;0.30;0.30;;;;;;;;;;5048798;28;20016;-74
2024/01/31 07:32:06;;;;;;;0.10;0.10;;;;;;;;;;5049836;28;20025;-75
2024/01/31 07:34:31;;;;;;;0.10;0.10;;;;;;;;;;5048525;28;20028;-75
2024/01/31 07:36:57;;;;;;;0.10;0.10;;;;;;;;;;5049160;28;20396;-74
2024/01/31 07:39:23;;;;;;;0.10;0.10;;;;;;;;;;5049024;28;20021;-74
2024/01/31 07:41:48;;;;;;;0.10;0.10;;;;;;;;;;5048562;28;20025;-76
2024/01/31 07:44:14;;;;;;;0.10;0.10;;;;;;;;;;5058771;28;20032;-73
2024/01/31 07:46:39;;;;;;;0.10;0.10;;;;;;;;;;5059000;28;20047;-78
2024/01/31 07:49:06;;;;;;;0.20;0.20;;;;;;;;;;5058469;28;20023;-76
2024/01/31 07:51:32;;;;;;;0.10;0.10;;;;;;;;;;5056776;28;20083;-75
2024/01/31 07:53:57;;;;;;;0.10;0.10;;;;;;;;;;5055886;28;20533;-83
2024/01/31 07:56:23;;;;;;;0.10;0.10;;;;;;;;;;5058458;28;20124;-79
2024/01/31 07:58:48;;;;;;;0.10;0.10;;;;;;;;;;5060255;28;20468;-77
2024/01/31 08:01:14;;;;;;;0.10;0.10;;;;;;;;;;5058929;28;20379;-76
2024/01/31 08:03:41;;;;;;;0.10;0.10;;;;;;;;;;5052310;28;20033;-75
2024/01/31 08:06:07;;;;;;;0.10;0.10;;;;;;;;;;5048776;28;20021;-75
2024/01/31 08:08:34;;;;;;;0.55;0.55;;;;;;;;;;5053602;28;20522;-82
2024/01/31 08:11:01;;;;;;;0.10;0.10;;;;;;;;;;5060323;28;20017;-79
2024/01/31 08:13:27;;;;;;;0.20;0.20;;;;;;;;;;5052428;28;20460;-75
2024/01/31 08:15:53;;;;;;;0.20;0.20;;;;;;;;;;5052395;28;20287;-75
2024/01/31 08:18:18;;;;;;;1.50;1.50;;;;;;;;;;5049587;28;20816;-75
2024/01/31 08:20:44;;;;;;;0.13;0.13;;;;;;;;;;5046851;28;20029;-74
2024/01/31 08:23:09;;;;;;;0.10;0.10;;;;;;;;;;5067412;28;20578;-75
2024/01/31 08:25:35;;;;;;;0.20;0.20;;;;;;;;;;5068408;28;20103;-75
2024/01/31 08:28:01;;;;;;;0.10;0.10;;;;;;;;;;5067689;28;20108;-75
2024/01/31 08:30:26;;;;;;;1.67;1.60;;;;;;;;;;5066081;28;20525;-74
2024/01/31 08:32:52;;;;;;;0.20;0.20;;;;;;;;;;5067165;28;20024;-74
2024/01/31 08:35:18;;;;;;;0.20;0.20;;;;;;;;;;5052101;28;20075;-74
2024/01/31 08:37:43;;;;;;;0.30;0.30;;;;;;;;;;5049534;28;20112;-75
2024/01/31 08:40:10;;;;;;;0.10;0.10;;;;;;;;;;5064185;28;20048;-74
2024/01/31 08:42:38;;;;;;;1.17;1.13;;;;;;;;;;5069683;28;20051;-74
2024/01/31 08:45:07;;;;;;;1.00;1.00;;;;;;;;;;5070048;28;20024;-75
2024/01/31 08:47:33;;;;;;;0.60;0.60;;;;;;;;;;5069975;28;20024;-75
2024/01/31 08:49:58;;;;;;;0.95;0.95;;;;;;;;;;5068534;28;20035;-75
2024/01/31 08:52:24;;;;;;;0.57;0.57;;;;;;;;;;5069527;28;20021;-74
2024/01/31 08:54:50;;;;;;;0.13;0.13;;;;;;;;;;5069706;28;20410;-73
2024/01/31 08:57:16;;;;;;;3.30;1.90;;;;;;;;;;5070004;28;20029;-75
2024/01/31 08:59:42;;;;;;;0.15;0.15;;;;;;;;;;5069847;28;20032;-74
2024/01/31 09:02:07;;;;;;;0.35;0.35;;;;;;;;;;5066120;28;20078;-75
2024/01/31 09:04:34;;;;;;;0.20;0.20;;;;;;;;;;5051874;28;20053;-75
2024/01/31 09:06:59;;;;;;;0.20;0.20;;;;;;;;;;5055238;28;20020;-76
2024/01/31 09:09:25;;;;;;;0.10;0.10;;;;;;;;;;5053901;28;20063;-75
2024/01/31 09:11:51;;;;;;;0.10;0.10;;;;;;;;;;5064296;28;20346;-75
2024/01/31 09:14:16;;;;;;;0.10;0.10;;;;;;;;;;5057862;28;20025;-75
2024/01/31 09:16:42;;;;;;;0.47;0.47;;;;;;;;;;5049385;28;20483;-75
2024/01/31 09:19:09;;;;;;;0.30;0.30;;;;;;;;;;5049437;28;20021;-74
2024/01/31 09:21:35;;;;;;;0.10;0.10;;;;;;;;;;5049668;28;20514;-74
2024/01/31 09:24:01;;;;;;;0.38;0.38;;;;;;;;;;5058085;28;20028;-76
2024/01/31 09:26:26;;;;;;;0.10;0.10;;;;;;;;;;5063393;28;20035;-74
2024/01/31 09:28:52;;;;;;;0.20;0.20;;;;;;;;;;5071687;28;20154;-74
2024/01/31 09:31:25;;;;;;;0.10;0.10;;;;;;;;;;5071890;28;20020;-74
2024/01/31 09:33:51;;;;;;;0.10;0.10;;;;;;;;;;5056909;28;20036;-74
2024/01/31 09:36:17;;;;;;;0.10;0.10;;;;;;;;;;5050664;28;20028;-75
2024/01/31 09:38:43;;;;;;;0.30;0.30;;;;;;;;;;5051980;28;20033;-75
2024/01/31 09:41:09;;;;;;;0.65;0.55;;;;;;;;;;5052149;28;20064;-77
2024/01/31 09:43:34;;;;;;;0.10;0.10;;;;;;;;;;5053034;28;20052;-76
2024/01/31 09:46:03;;;;;;;0.68;0.63;;;;;;;;;;5053152;28;20079;-75
2024/01/31 09:48:29;;;;;;;0.57;0.57;;;;;;;;;;5053647;28;20075;-75
2024/01/31 09:50:55;;;;;;;0.93;0.32;;;;;;;;;;5064831;28;20021;-75
2024/01/31 09:53:22;;;;;;;0.20;0.20;;;;;;;;;;5058215;28;20036;-75
2024/01/31 09:55:50;;;;;;;0.13;0.13;;;;;;;;;;5056375;28;20020;-74
2024/01/31 09:58:16;;;;;;;0.17;0.17;;;;;;;;;;5057562;28;20025;-74
2024/01/31 10:00:42;;;;;;;0.10;0.10;;;;;;;;;;5059341;28;20032;-74
2024/01/31 10:03:09;;;;;;;0.10;0.10;;;;;;;;;;5058404;28;20048;-75
2024/01/31 10:05:36;;;;;;;0.10;0.10;;;;;;;;;;5064675;28;20037;-74
2024/01/31 10:08:02;;;;;;;0.63;0.63;;;;;;;;;;5067425;28;20059;-76
2024/01/31 10:10:29;;;;;;;0.77;0.77;;;;;;;;;;5058844;28;20041;-75
2024/01/31 10:12:55;;;;;;;0.22;0.22;;;;;;;;;;5050782;28;20124;-75
2024/01/31 10:15:21;;;;;;;3.40;1.15;;;;;;;;;;5050369;28;20013;-75
2024/01/31 10:17:46;;;;;;;0.20;0.20;;;;;;;;;;5050124;28;20039;-75
2024/01/31 10:20:15;;;;;;;0.20;0.20;;;;;;;;;;5050326;28;20072;-76
2024/01/31 10:22:41;;;;;;;0.10;0.10;;;;;;;;;;5051068;28;20368;-75
2024/01/31 10:25:08;;;;;;;0.10;0.10;;;;;;;;;;5051448;28;20033;-74
2024/01/31 10:27:37;;;;;;;0.30;0.30;;;;;;;;;;5051532;28;20025;-75
2024/01/31 10:30:03;;;;;;;0.10;0.10;;;;;;;;;;5054356;28;20067;-73
2024/01/31 10:32:29;;;;;;;1.25;1.10;;;;;;;;;;5063028;28;20023;-76
2024/01/31 10:34:56;;;;;;;3.22;0.85;;;;;;;;;;5059380;28;20071;-76
2024/01/31 10:37:22;;;;;;;0.20;0.20;;;;;;;;;;5061490;28;20094;-75
2024/01/31 10:39:50;;;;;;;0.73;0.73;;;;;;;;;;5059768;28;20067;-75
2024/01/31 10:42:16;;;;;;;1.70;1.60;;;;;;;;;;5060539;28;20031;-74
2024/01/31 10:44:43;;;;;;;0.30;0.30;;;;;;;;;;5053959;28;20029;-74
2024/01/31 10:47:09;;;;;;;0.20;0.20;;;;;;;;;;5051770;28;20029;-74
2024/01/31 10:49:35;;;;;;;2.03;1.80;;;;;;;;;;5052073;28;20021;-74
2024/01/31 10:52:02;;;;;;;0.20;0.20;;;;;;;;;;5051521;28;20029;-74
2024/01/31 10:54:29;;;;;;;0.57;0.57;;;;;;;;;;5051470;28;20025;-75
2024/01/31 10:56:55;;;;;;;1.27;1.00;;;;;;;;;;5052025;28;20017;-75
2024/01/31 10:59:21;;;;;;;3.58;1.95;;;;;;;;;;5051508;28;20025;-75
2024/01/31 11:02:04;;;;;;;5.40;2.67;;;;;;;;;;5059135;28;20029;-76
2024/01/31 11:04:30;;;;;;;0.50;0.50;;;;;;;;;;5050490;28;20364;-75
2024/01/31 11:07:00;;;;;;;0.50;0.50;;;;;;;;;;5051657;28;20029;-75
2024/01/31 11:09:26;;;;;;;0.40;0.40;;;;;;;;;;5053134;28;20024;-75
2024/01/31 11:12:05;;;;;;;0.20;0.20;;;;;;;;;;5061750;28;20019;-74
2024/01/31 11:14:32;;;;;;;2.58;1.75;;;;;;;;;;5057470;28;20033;-75
2024/01/31 11:17:26;;;;;;;12.02;5.88;;;;;;;;;;5050058;28;20038;-74
2024/01/31 11:19:53;;;;;;;2.30;1.67;;;;;;;;;;5056514;28;20032;-75
2024/01/31 11:22:19;;;;;;;1.17;0.60;;;;;;;;;;5061241;28;20024;-75
2024/01/31 11:24:49;;;;;;;3.92;2.95;;;;;;;;;;5060558;28;20017;-75
2024/01/31 11:27:15;;;;;;;5.82;1.73;;;;;;;;;;5050757;28;20021;-75
2024/01/31 11:29:49;;;;;;;2.63;1.45;;;;;;;;;;5050923;28;20101;-74
2024/01/31 11:32:15;;;;;;;2.92;2.17;;;;;;;;;;5049681;28;20536;-74
2024/01/31 11:34:41;;;;;;;4.60;1.58;;;;;;;;;;5057312;28;20096;-75
2024/01/31 11:37:07;;;;;;;1.55;0.98;;;;;;;;;;5058955;28;20368;-75
2024/01/31 11:39:33;;;;;;;1.55;1.17;;;;;;;;;;5070796;28;20028;-75
2024/01/31 11:41:59;;;;;;;2.88;1.52;;;;;;;;;;5070712;28;20039;-75
2024/01/31 11:44:25;;;;;;;4.57;2.47;;;;;;;;;;5070292;28;20406;-76
2024/01/31 11:46:51;;;;;;;2.47;1.83;;;;;;;;;;5051460;28;20024;-75
2024/01/31 11:49:16;;;;;;;0.68;0.68;;;;;;;;;;5050660;28;20057;-76
2024/01/31 11:51:42;;;;;;;3.33;0.93;;;;;;;;;;5056216;28;20020;-75
2024/01/31 11:54:08;;;;;;;4.38;3.13;;;;;;;;;;5053464;28;20025;-75
2024/01/31 11:56:34;;;;;;;1.95;1.85;;;;;;;;;;5050346;28;20522;-75
2024/01/31 11:59:00;;;;;;;0.50;0.50;;;;;;;;;;5050293;28;20024;-74
2024/01/31 12:01:26;;;;;;;2.30;2.10;;;;;;;;;;5050650;28;20057;-76
2024/01/31 12:03:52;;;;;;;3.05;1.73;;;;;;;;;;5050103;28;20017;-76
2024/01/31 12:06:18;;;;;;;4.47;2.45;;;;;;;;;;5048691;28;20051;-76
2024/01/31 12:08:48;;;;;;;2.05;1.48;;;;;;;;;;5050379;28;20025;-75
2024/01/31 12:11:14;;;;;;;5.80;2.97;;;;;;;;;;5049401;28;20029;-75
2024/01/31 12:13:40;;;;;;;1.77;1.35;;;;;;;;;;5050024;28;20017;-75
2024/01/31 12:16:06;;;;;;;0.73;0.73;;;;;;;;;;5048944;28;20029;-76
2024/01/31 12:18:32;;;;;;;1.20;1.10;;;;;;;;;;5049655;28;20162;-75
2024/01/31 12:21:04;;;;;;;5.05;1.95;;;;;;;;;;5050139;28;20364;-76
2024/01/31 12:23:30;;;;;;;2.10;1.77;;;;;;;;;;5050592;28;20532;-75
2024/01/31 12:25:56;;;;;;;2.28;2.08;;;;;;;;;;5050018;28;20115;-76
2024/01/31 12:28:22;;;;;;;2.97;1.92;;;;;;;;;;5051470;28;20049;-76
2024/01/31 12:30:47;;;;;;;0.80;0.77;;;;;;;;;;5049084;28;20028;-75
2024/01/31 12:33:13;;;;;;;1.00;0.88;;;;;;;;;;5049427;28;20020;-76
2024/01/31 12:35:38;;;;;;;4.88;3.05;;;;;;;;;;5050517;28;20021;-76
2024/01/31 12:38:04;;;;;;;1.20;0.88;;;;;;;;;;5049313;28;21060;-75
2024/01/31 12:40:29;;;;;;;1.50;1.40;;;;;;;;;;5053499;28;20035;-76
2024/01/31 12:42:56;;;;;;;1.25;1.15;;;;;;;;;;5065529;28;20028;-75
2024/01/31 12:45:22;;;;;;;2.40;1.58;;;;;;;;;;5069039;28;20582;-74
2024/01/31 12:47:48;;;;;;;2.75;1.73;;;;;;;;;;5063915;28;20107;-75
2024/01/31 12:50:13;;;;;;;2.15;1.80;;;;;;;;;;5061443;28;20036;-75
2024/01/31 12:52:39;;;;;;;2.50;1.73;;;;;;;;;;5058917;28;20158;-76
2024/01/31 12:55:05;;;;;;;2.42;1.55;;;;;;;;;;5066455;28;20139;-75
2024/01/31 12:57:31;;;;;;;4.38;1.00;;;;;;;;;;5068885;28;20020;-75
2024/01/31 12:59:57;;;;;;;4.18;2.60;;;;;;;;;;5058980;28;20028;-75
2024/01/31 13:02:22;;;;;;;9.85;5.57;;;;;;;;;;5069502;28;20051;-75
2024/01/31 13:04:48;;;;;;;4.30;2.25;;;;;;;;;;5066888;28;20035;-75
2024/01/31 13:07:13;;;;;;;0.22;0.22;;;;;;;;;;5063962;28;20070;-75
2024/01/31 13:09:39;;;;;;;3.35;2.35;;;;;;;;;;5056499;28;20045;-76
2024/01/31 13:12:05;;;;;;;1.10;0.95;;;;;;;;;;5062348;28;20134;-76
2024/01/31 13:14:31;;;;;;;9.77;9.07;;;;;;;;;;5062612;28;20042;-76
2024/01/31 13:16:57;;;;;;;4.65;3.45;;;;;;;;;;5052182;28;20029;-75
2024/01/31 13:19:24;;;;;;;0.30;0.30;;;;;;;;;;5061048;28;20024;-76
2024/01/31 13:21:50;;;;;;;7.93;3.40;;;;;;;;;;5067049;28;20017;-75
2024/01/31 13:24:19;;;;;;;7.22;2.17;;;;;;;;;;5048119;28;20020;-75
2024/01/31 13:26:45;;;;;;;5.72;3.20;;;;;;;;;;5048738;28;20025;-75
2024/01/31 13:29:10;;;;;;;7.18;3.35;;;;;;;;;;5048243;28;20017;-76
2024/01/31 13:31:36;;;;;;;7.05;3.08;;;;;;;;;;5060308;28;20021;-75
2024/01/31 13:34:02;;;;;;;4.78;2.90;;;;;;;;;;5049363;28;20021;-77
2024/01/31 13:36:28;;;;;;;4.70;2.35;;;;;;;;;;5047830;28;20371;-75
2024/01/31 13:38:54;;;;;;;0.43;0.43;;;;;;;;;;5048662;28;20048;-76
2024/01/31 13:41:22;;;;;;;4.65;1.38;;;;;;;;;;5044790;28;20491;-76
2024/01/31 13:43:50;;;;;;;0.50;0.50;;;;;;;;;;5063599;28;20033;-76
2024/01/31 13:46:16;;;;;;;3.22;2.92;;;;;;;;;;5048301;28;20040;-76
2024/01/31 13:48:41;;;;;;;2.05;1.40;;;;;;;;;;5047671;28;20392;-75
2024/01/31 13:51:08;;;;;;;4.20;2.85;;;;;;;;;;5051873;28;20020;-76
2024/01/31 13:53:35;;;;;;;2.28;1.40;;;;;;;;;;5059345;28;20495;-75
2024/01/31 13:56:00;;;;;;;1.02;0.88;;;;;;;;;;5055539;28;20408;-75
2024/01/31 13:58:26;;;;;;;4.72;4.40;;;;;;;;;;5046697;28;20021;-76
2024/01/31 14:00:52;;;;;;;3.92;2.70;;;;;;;;;;5046063;28;20036;-75
2024/01/31 14:03:18;;;;;;;6.18;2.38;;;;;;;;;;5066934;28;20031;-76
2024/01/31 14:05:44;;;;;;;0.50;0.50;;;;;;;;;;5066651;28;20060;-76
2024/01/31 14:08:09;;;;;;;1.60;1.35;;;;;;;;;;5067084;28;20108;-75
2024/01/31 14:10:35;;;;;;;7.45;3.17;;;;;;;;;;5070273;28;20736;-76
2024/01/31 14:13:00;;;;;;;3.13;1.92;;;;;;;;;;5070606;28;20020;-75
2024/01/31 14:15:26;;;;;;;4.93;3.22;;;;;;;;;;5068310;28;20547;-75
2024/01/31 14:17:52;;;;;;;2.70;1.88;;;;;;;;;;5070929;28;20029;-75
2024/01/31 14:20:18;;;;;;;6.18;2.85;;;;;;;;;;5055968;28;20403;-75
2024/01/31 14:22:43;;;;;;;3.00;1.63;;;;;;;;;;5052950;28;20025;-73
2024/01/31 14:25:09;;;;;;;3.45;1.85;;;;;;;;;;5059076;28;20021;-74
2024/01/31 14:27:35;;;;;;;4.20;2.38;;;;;;;;;;5061904;28;20025;-74
2024/01/31 14:30:01;;;;;;;2.03;1.20;;;;;;;;;;5055043;28;20021;-76
2024/01/31 14:32:27;;;;;;;4.35;3.30;;;;;;;;;;5050157;28;20024;-75
2024/01/31 14:34:53;;;;;;;0.90;0.65;;;;;;;;;;5048479;28;20009;-76
2024/01/31 14:37:18;;;;;;;0.47;0.40;;;;;;;;;;5051751;28;20041;-75